createdAt,value
2018-06-25T00:01:18.693Z,102310.69
2018-06-25T00:04:20.881Z,102313.28
2018-06-25T00:07:22.921Z,102315.05
2018-06-25T00:10:24.980Z,102310.64
2018-06-25T00:13:27.028Z,102311.35
2018-06-25T00:16:29.095Z,102315.96
2018-06-25T00:19:31.028Z,102322.46
2018-06-25T00:22:33.049Z,102318.60
2018-06-25T00:25:35.221Z,102315.81
2018-06-25T00:28:37.311Z,102316.32
2018-06-25T00:31:39.321Z,102317.54
2018-06-25T00:34:41.411Z,102310.86
2018-06-25T00:37:44.731Z,102315.95
2018-06-25T00:40:46.777Z,102314.42
2018-06-25T00:43:48.967Z,102315.60
2018-06-25T00:46:51.020Z,102309.83
2018-06-25T00:49:53.128Z,102302.94
2018-06-25T00:52:55.272Z,102303.74
2018-06-25T00:55:57.325Z,102305.01
2018-06-25T00:59:10.980Z,102307.49
2018-06-25T01:02:13.990Z,102305.10
2018-06-25T01:05:16.191Z,102306.91
2018-06-25T01:08:18.283Z,102310.11
2018-06-25T01:11:20.263Z,102308.64
2018-06-25T01:14:22.349Z,102309.73
2018-06-25T01:17:24.434Z,102305.84
2018-06-25T01:20:26.485Z,102308.09
2018-06-25T01:23:28.535Z,102313.60
2018-06-25T01:26:30.799Z,102311.41
2018-06-25T01:29:32.877Z,102313.86
2018-06-25T01:32:34.923Z,102309.37
2018-06-25T01:35:37.015Z,102309.36
2018-06-25T01:38:39.083Z,102312.07
2018-06-25T01:41:42.196Z,102304.28
2018-06-25T01:44:45.474Z,102300.49
2018-06-25T01:47:48.464Z,102298.73
2018-06-25T01:50:51.547Z,102294.51
2018-06-25T01:53:53.655Z,102295.19
2018-06-25T01:56:55.698Z,102291.14
2018-06-25T01:59:57.665Z,102295.72
2018-06-25T02:02:59.742Z,102295.07
2018-06-25T02:06:01.817Z,102299.49
2018-06-25T02:09:06.910Z,102297.62
2018-06-25T02:12:08.975Z,102293.55
2018-06-25T02:15:10.952Z,102291.29
2018-06-25T02:18:14.611Z,102295.42
2018-06-25T02:21:16.658Z,102304.55
2018-06-25T02:24:19.740Z,102304.51
2018-06-25T02:27:21.795Z,102307.43
2018-06-25T02:30:23.855Z,102301.63
2018-06-25T02:33:25.908Z,102302.86
2018-06-25T02:36:28.038Z,102306.38
2018-06-25T02:39:31.104Z,102299.50
2018-06-25T02:42:33.176Z,102297.98
2018-06-25T02:45:35.239Z,102302.92
2018-06-25T02:48:37.326Z,102306.85
2018-06-25T02:51:39.408Z,102310.50
2018-06-25T02:54:41.446Z,102312.18
2018-06-25T02:57:44.645Z,102308.92
2018-06-25T03:00:46.569Z,102302.61
2018-06-25T03:03:48.696Z,102308.99
2018-06-25T03:06:50.859Z,102309.58
2018-06-25T03:09:52.942Z,102304.49
2018-06-25T03:12:54.988Z,102307.67
2018-06-25T03:15:57.187Z,102305.58
2018-06-25T03:18:59.152Z,102310.52
2018-06-25T03:22:01.192Z,102318.28
2018-06-25T03:25:03.299Z,102320.67
2018-06-25T03:28:05.349Z,102328.00
2018-06-25T03:31:07.407Z,102333.93
2018-06-25T03:34:09.514Z,102330.83
2018-06-25T03:37:11.545Z,102336.24
2018-06-25T03:40:15.876Z,102338.35
2018-06-25T03:43:18.019Z,102341.09
2018-06-25T03:46:20.068Z,102344.84
2018-06-25T03:49:22.282Z,102341.81
2018-06-25T03:52:24.305Z,102339.56
2018-06-25T03:55:26.392Z,102342.66
2018-06-25T03:58:28.493Z,102343.38
2018-06-25T04:01:30.570Z,102346.10
2018-06-25T04:04:32.593Z,102350.80
2018-06-25T04:07:34.711Z,102359.47
2018-06-25T04:10:36.750Z,102357.74
2018-06-25T04:13:38.737Z,102364.66
2018-06-25T04:16:40.751Z,102364.86
2018-06-25T04:19:45.591Z,102369.76
2018-06-25T04:22:47.848Z,102367.02
2018-06-25T04:25:49.858Z,102367.90
2018-06-25T04:28:57.216Z,102375.18
2018-06-25T04:31:59.329Z,102372.72
2018-06-25T04:35:01.393Z,102377.86
2018-06-25T04:38:03.492Z,102376.81
2018-06-25T04:41:05.706Z,102381.28
2018-06-25T04:44:08.844Z,102386.11
2018-06-25T04:47:10.868Z,102384.26
2018-06-25T04:50:16.120Z,102386.43
2018-06-25T04:53:18.222Z,102385.27
2018-06-25T04:56:20.432Z,102386.41
2018-06-25T04:59:22.542Z,102387.71
2018-06-25T05:02:24.615Z,102396.31
2018-06-25T05:05:29.104Z,102393.68
2018-06-25T05:08:31.199Z,102396.77
2018-06-25T05:11:33.255Z,102401.16
2018-06-25T05:14:36.398Z,102402.49
2018-06-25T05:17:38.460Z,102407.57
2018-06-25T05:20:41.551Z,102410.16
2018-06-25T05:23:43.636Z,102408.07
2018-06-25T05:26:46.468Z,102416.09
2018-06-25T05:29:48.534Z,102414.90
2018-06-25T05:32:51.635Z,102419.69
2018-06-25T05:35:53.816Z,102424.89
2018-06-25T05:38:55.903Z,102430.24
2018-06-25T05:41:57.999Z,102429.92
2018-06-25T05:45:00.151Z,102427.51
2018-06-25T05:48:02.322Z,102427.58
2018-06-25T05:51:05.476Z,102434.17
2018-06-25T05:54:07.484Z,102427.53
2018-06-25T05:57:10.035Z,102433.62
2018-06-25T06:00:12.024Z,102436.32
2018-06-25T06:03:16.508Z,102434.12
2018-06-25T06:06:18.493Z,102439.06
2018-06-25T06:09:20.589Z,102438.09
2018-06-25T06:12:22.719Z,102445.51
2018-06-25T06:15:24.814Z,102446.44
2018-06-25T06:18:26.903Z,102447.44
2018-06-25T06:21:28.977Z,102455.14
2018-06-25T06:24:31.367Z,102462.21
2018-06-25T06:27:33.314Z,102460.37
2018-06-25T06:30:35.384Z,102467.09
2018-06-25T06:33:37.849Z,102462.37
2018-06-25T06:36:40.083Z,102465.04
2018-06-25T06:39:42.205Z,102467.57
2018-06-25T06:42:46.353Z,102466.68
2018-06-25T06:45:48.494Z,102467.63
2018-06-25T06:48:50.654Z,102475.55
2018-06-25T06:51:53.274Z,102475.14
2018-06-25T06:54:55.300Z,102472.97
2018-06-25T06:57:57.536Z,102476.97
2018-06-25T07:00:59.527Z,102468.84
2018-06-25T07:04:01.591Z,102477.80
2018-06-25T07:07:04.003Z,102477.64
2018-06-25T07:10:06.074Z,102477.04
2018-06-25T07:13:08.147Z,102475.50
2018-06-25T07:16:10.179Z,102478.65
2018-06-25T07:19:12.264Z,102480.91
2018-06-25T07:22:14.335Z,102472.65
2018-06-25T07:25:17.643Z,102474.23
2018-06-25T07:28:19.700Z,102475.58
2018-06-25T07:31:28.636Z,102473.52
2018-06-25T07:34:30.693Z,102472.38
2018-06-25T07:37:32.737Z,102470.46
2018-06-25T07:40:34.829Z,102479.23
2018-06-25T07:43:36.883Z,102476.93
2018-06-25T07:46:38.872Z,102471.90
2018-06-25T07:49:40.943Z,102472.31
2018-06-25T07:52:43.174Z,102469.26
2018-06-25T07:55:46.132Z,102463.17
2018-06-25T07:58:48.273Z,102466.18
2018-06-25T08:01:50.492Z,102466.52
2018-06-25T08:04:52.500Z,102467.14
2018-06-25T08:07:54.579Z,102466.10
2018-06-25T08:10:56.594Z,102465.94
2018-06-25T08:13:58.706Z,102460.83
2018-06-25T08:17:01.843Z,102467.38
2018-06-25T08:20:04.935Z,102474.55
2018-06-25T08:23:07.147Z,102476.01
2018-06-25T08:26:09.207Z,102473.42
2018-06-25T08:29:11.287Z,102483.94
2018-06-25T08:32:13.376Z,102481.24
2018-06-25T08:35:16.475Z,102483.02
2018-06-25T08:38:18.524Z,102483.76
2018-06-25T08:41:20.494Z,102488.56
2018-06-25T08:44:22.548Z,102494.22
2018-06-25T08:47:24.629Z,102491.93
2018-06-25T08:50:33.171Z,102497.28
2018-06-25T08:53:35.238Z,102495.51
2018-06-25T08:56:37.311Z,102489.96
2018-06-25T08:59:39.550Z,102493.73
2018-06-25T09:02:41.527Z,102490.16
2018-06-25T09:05:43.584Z,102498.70
2018-06-25T09:08:46.787Z,102498.05
2018-06-25T09:11:48.828Z,102494.98
2018-06-25T09:14:51.102Z,102496.52
2018-06-25T09:17:53.215Z,102487.61
2018-06-25T09:20:55.259Z,102480.32
2018-06-25T09:23:57.333Z,102491.83
2018-06-25T09:26:59.403Z,102483.57
2018-06-25T09:30:01.476Z,102479.43
2018-06-25T09:33:03.558Z,102477.39
2018-06-25T09:36:05.687Z,102477.33
2018-06-25T09:39:09.595Z,102481.30
2018-06-25T09:42:11.699Z,102484.15
2018-06-25T09:45:13.784Z,102483.48
2018-06-25T09:48:15.846Z,102486.63
2018-06-25T09:51:18.118Z,102485.63
2018-06-25T09:54:20.382Z,102482.96
2018-06-25T09:57:22.522Z,102484.76
2018-06-25T10:00:30.458Z,102487.33
2018-06-25T10:03:32.597Z,102482.97
2018-06-25T10:06:34.613Z,102482.44
2018-06-25T10:09:36.779Z,102490.16
2018-06-25T10:12:38.825Z,102481.47
2018-06-25T10:15:40.908Z,102481.91
2018-06-25T10:18:49.118Z,102480.08
2018-06-25T10:21:51.201Z,102483.78
2018-06-25T10:24:53.254Z,102483.11
2018-06-25T10:27:56.375Z,102477.43
2018-06-25T10:30:58.504Z,102477.10
2018-06-25T10:34:00.508Z,102477.85
2018-06-25T10:37:02.940Z,102477.26
2018-06-25T10:40:04.978Z,102474.00
2018-06-25T10:43:08.186Z,102481.27
2018-06-25T10:46:10.313Z,102483.45
2018-06-25T10:49:12.363Z,102480.84
2018-06-25T10:52:14.346Z,102474.28
2018-06-25T10:55:16.427Z,102480.87
2018-06-25T10:58:19.623Z,102483.69
2018-06-25T11:01:22.039Z,102488.40
2018-06-25T11:04:24.139Z,102487.23
2018-06-25T11:07:26.409Z,102483.87
2018-06-25T11:10:28.327Z,102485.49
2018-06-25T11:13:30.544Z,102483.00
2018-06-25T11:16:33.578Z,102481.54
2018-06-25T11:19:35.659Z,102480.72
2018-06-25T11:22:37.802Z,102473.36
2018-06-25T11:25:39.868Z,102469.76
2018-06-25T11:28:41.939Z,102464.76
2018-06-25T11:31:44.020Z,102458.43
2018-06-25T11:34:46.083Z,102451.10
2018-06-25T11:37:49.158Z,102447.73
2018-06-25T11:40:51.240Z,102444.05
2018-06-25T11:43:53.315Z,102445.23
2018-06-25T11:46:55.366Z,102448.21
2018-06-25T11:49:57.693Z,102450.27
2018-06-25T11:52:59.683Z,102446.97
2018-06-25T11:56:01.756Z,102440.42
2018-06-25T11:59:04.404Z,102446.07
2018-06-25T12:02:06.666Z,102445.98
2018-06-25T12:05:08.697Z,102446.09
2018-06-25T12:08:10.752Z,102449.65
2018-06-25T12:11:12.891Z,102455.92
2018-06-25T12:14:15.166Z,102447.55
2018-06-25T12:17:18.179Z,102446.05
2018-06-25T12:20:20.272Z,102450.96
2018-06-25T12:23:22.356Z,102452.31
2018-06-25T12:26:25.515Z,102441.46
2018-06-25T12:29:27.590Z,102433.53
2018-06-25T12:32:29.607Z,102427.36
2018-06-25T12:35:31.646Z,102432.64
2018-06-25T12:38:33.727Z,102437.95
2018-06-25T12:41:36.886Z,102444.32
2018-06-25T12:44:38.844Z,102440.47
2018-06-25T12:47:40.935Z,102445.97
2018-06-25T12:50:42.976Z,102441.41
2018-06-25T12:53:45.118Z,102439.88
2018-06-25T12:56:47.843Z,102438.54
2018-06-25T12:59:50.869Z,102437.04
2018-06-25T13:02:53.008Z,102440.02
2018-06-25T13:05:56.199Z,102429.63
2018-06-25T13:08:58.290Z,102432.52
2018-06-25T13:12:01.384Z,102441.38
2018-06-25T13:15:03.558Z,102437.83
2018-06-25T13:18:05.533Z,102443.82
2018-06-25T13:21:07.668Z,102441.80
2018-06-25T13:24:09.758Z,102443.76
2018-06-25T13:27:11.911Z,102447.49
2018-06-25T13:30:14.923Z,102448.88
2018-06-25T13:33:18.025Z,102445.08
2018-06-25T13:36:20.103Z,102436.79
2018-06-25T13:39:22.140Z,102428.18
2018-06-25T13:42:24.220Z,102436.23
2018-06-25T13:45:26.277Z,102432.47
2018-06-25T13:48:28.465Z,102434.30
2018-06-25T13:51:30.506Z,102434.47
2018-06-25T13:54:32.592Z,102431.34
2018-06-25T13:57:34.692Z,102428.93
2018-06-25T14:00:38.844Z,102421.11
2018-06-25T14:03:43.338Z,102425.97
2018-06-25T14:06:45.380Z,102421.71
2018-06-25T14:09:48.229Z,102425.08
2018-06-25T14:12:50.347Z,102414.36
2018-06-25T14:15:52.454Z,102415.13
2018-06-25T14:18:54.606Z,102419.47
2018-06-25T14:21:56.707Z,102412.39
2018-06-25T14:24:59.792Z,102404.30
2018-06-25T14:28:07.800Z,102410.69
2018-06-25T14:31:16.986Z,102408.45
2018-06-25T14:34:22.325Z,102407.20
2018-06-25T14:37:24.817Z,102411.31
2018-06-25T14:40:26.925Z,102404.46
2018-06-25T14:43:29.261Z,102404.42
2018-06-25T14:46:32.369Z,102398.09
2018-06-25T14:49:34.408Z,102398.48
2018-06-25T14:52:36.581Z,102402.44
2018-06-25T14:55:38.642Z,102395.08
2018-06-25T14:58:40.771Z,102401.09
2018-06-25T15:01:43.512Z,102400.77
2018-06-25T15:04:45.625Z,102397.47
2018-06-25T15:07:48.675Z,102399.19
2018-06-25T15:10:50.735Z,102400.91
2018-06-25T15:13:54.831Z,102401.00
2018-06-25T15:16:57.059Z,102394.63
2018-06-25T15:19:59.258Z,102391.69
2018-06-25T15:23:01.412Z,102390.87
2018-06-25T15:26:03.626Z,102395.33
2018-06-25T15:29:05.880Z,102384.30
2018-06-25T15:32:07.970Z,102383.01
2018-06-25T15:35:10.073Z,102381.84
2018-06-25T15:38:13.708Z,102379.62
2018-06-25T15:41:15.688Z,102379.05
2018-06-25T15:44:17.976Z,102381.17
2018-06-25T15:47:20.225Z,102383.45
2018-06-25T15:50:22.422Z,102380.94
2018-06-25T15:53:24.545Z,102377.41
2018-06-25T15:56:26.745Z,102377.65
2018-06-25T15:59:28.714Z,102378.20
2018-06-25T16:02:31.074Z,102375.30
2018-06-25T16:05:33.143Z,102369.71
2018-06-25T16:08:35.467Z,102373.32
2018-06-25T16:11:37.525Z,102375.32
2018-06-25T16:14:39.903Z,102368.10
2018-06-25T16:17:42.753Z,102363.17
2018-06-25T16:20:45.262Z,102363.16
2018-06-25T16:23:47.445Z,102364.28
2018-06-25T16:26:49.572Z,102364.14
2018-06-25T16:29:51.790Z,102364.31
2018-06-25T16:32:53.859Z,102371.28
2018-06-25T16:35:55.933Z,102370.36
2018-06-25T16:38:58.014Z,102365.47
2018-06-25T16:42:00.073Z,102372.15
2018-06-25T16:45:02.353Z,102363.86
2018-06-25T16:48:04.626Z,102364.99
2018-06-25T16:51:06.712Z,102362.93
2018-06-25T16:54:08.904Z,102361.70
2018-06-25T16:57:10.994Z,102360.55
2018-06-25T17:00:13.933Z,102366.43
2018-06-25T17:03:16.105Z,102364.12
2018-06-25T17:06:18.177Z,102368.42
2018-06-25T17:09:21.242Z,102370.05
2018-06-25T17:12:23.382Z,102369.33
2018-06-25T17:15:26.464Z,102370.47
2018-06-25T17:18:28.792Z,102368.69
2018-06-25T17:21:30.854Z,102365.08
2018-06-25T17:24:32.951Z,102363.95
2018-06-25T17:27:35.152Z,102365.90
2018-06-25T17:30:38.764Z,102371.38
2018-06-25T17:33:40.739Z,102371.57
2018-06-25T17:36:43.535Z,102369.12
2018-06-25T17:39:45.729Z,102369.13
2018-06-25T17:42:47.795Z,102369.72
2018-06-25T17:45:49.908Z,102366.15
2018-06-25T17:48:51.938Z,102366.56
2018-06-25T17:51:53.991Z,102369.97
2018-06-25T17:54:56.292Z,102370.62
2018-06-25T17:57:58.756Z,102377.50
2018-06-25T18:01:00.775Z,102373.52
2018-06-25T18:04:02.954Z,102375.56
2018-06-25T18:07:05.985Z,102375.85
2018-06-25T18:10:08.173Z,102372.56
2018-06-25T18:13:11.409Z,102374.25
2018-06-25T18:16:14.119Z,102375.58
2018-06-25T18:19:16.169Z,102381.77
2018-06-25T18:22:18.256Z,102383.58
2018-06-25T18:25:20.351Z,102379.67
2018-06-25T18:28:22.479Z,102373.80
2018-06-25T18:31:24.554Z,102377.50
2018-06-25T18:34:26.699Z,102377.50
2018-06-25T18:37:28.831Z,102382.23
2018-06-25T18:40:30.888Z,102382.13
2018-06-25T18:43:34.255Z,102383.98
2018-06-25T18:46:36.533Z,102380.57
2018-06-25T18:49:38.659Z,102382.81
2018-06-25T18:52:40.879Z,102378.10
2018-06-25T18:55:43.007Z,102384.46
2018-06-25T18:58:46.187Z,102390.31
2018-06-25T19:01:48.362Z,102390.30
2018-06-25T19:04:50.434Z,102395.79
2018-06-25T19:07:52.622Z,102391.31
2018-06-25T19:10:54.812Z,102400.54
2018-06-25T19:13:56.987Z,102402.24
2018-06-25T19:16:59.178Z,102413.23
2018-06-25T19:20:01.623Z,102414.47
2018-06-25T19:23:05.872Z,102409.78
2018-06-25T19:26:09.033Z,102411.47
2018-06-25T19:29:12.088Z,102418.75
2018-06-25T19:32:14.334Z,102419.44
2018-06-25T19:35:16.436Z,102425.93
2018-06-25T19:38:18.610Z,102425.38
2018-06-25T19:41:21.723Z,102428.71
2018-06-25T19:44:33.912Z,102437.66
2018-06-25T19:47:36.011Z,102446.57
2018-06-25T19:50:37.946Z,102457.41
2018-06-25T19:53:39.994Z,102464.96
2018-06-25T19:56:42.171Z,102466.71
2018-06-25T19:59:44.346Z,102470.44
2018-06-25T20:02:46.461Z,102473.96
2018-06-25T20:05:48.641Z,102481.92
2018-06-25T20:08:50.659Z,102478.47
2018-06-25T20:11:53.733Z,102486.08
2018-06-25T20:14:55.807Z,102480.49
2018-06-25T20:17:57.883Z,102489.50
2018-06-25T20:21:00.867Z,102488.49
2018-06-25T20:24:03.501Z,102489.37
2018-06-25T20:27:05.543Z,102487.50
2018-06-25T20:30:08.055Z,102494.08
2018-06-25T20:33:10.222Z,102498.23
2018-06-25T20:36:14.310Z,102499.69
2018-06-25T20:39:16.429Z,102508.86
2018-06-25T20:42:18.503Z,102505.34
2018-06-25T20:45:20.634Z,102513.80
2018-06-25T20:48:22.802Z,102503.27
2018-06-25T20:51:24.862Z,102512.69
2018-06-25T20:54:27.135Z,102513.56
2018-06-25T20:57:29.307Z,102517.51
2018-06-25T21:00:31.698Z,102514.70
2018-06-25T21:03:33.903Z,102510.19
2018-06-25T21:06:35.962Z,102510.52
2018-06-25T21:09:43.083Z,102510.30
2018-06-25T21:12:45.071Z,102508.01
2018-06-25T21:15:47.176Z,102507.61
2018-06-25T21:18:49.213Z,102507.57
2018-06-25T21:21:51.438Z,102505.85
2018-06-25T21:24:53.634Z,102513.65
2018-06-25T21:27:56.066Z,102512.61
2018-06-25T21:30:58.119Z,102513.99
2018-06-25T21:34:01.312Z,102514.25
2018-06-25T21:37:05.098Z,102516.74
2018-06-25T21:40:07.212Z,102515.97
2018-06-25T21:43:09.289Z,102521.26
2018-06-25T21:46:11.333Z,102522.13
2018-06-25T21:49:13.539Z,102524.87
2018-06-25T21:52:15.702Z,102529.83
2018-06-25T21:55:17.844Z,102529.83
2018-06-25T21:58:22.032Z,102530.11
2018-06-25T22:01:23.948Z,102531.00
2018-06-25T22:04:27.365Z,102534.48
2018-06-25T22:07:29.369Z,102531.91
2018-06-25T22:10:31.469Z,102533.20
2018-06-25T22:13:34.429Z,102532.69
2018-06-25T22:16:36.534Z,102529.12
2018-06-25T22:19:38.593Z,102525.95
2018-06-25T22:22:40.847Z,102529.97
2018-06-25T22:25:42.921Z,102528.12
2018-06-25T22:28:45.111Z,102524.34
2018-06-25T22:31:47.076Z,102517.10
2018-06-25T22:34:49.129Z,102515.44
2018-06-25T22:37:51.820Z,102521.98
2018-06-25T22:40:54.393Z,102518.37
2018-06-25T22:44:08.907Z,102523.67
2018-06-25T22:47:11.367Z,102525.75
2018-06-25T22:50:13.862Z,102526.52
2018-06-25T22:53:15.957Z,102525.29
2018-06-25T22:56:18.094Z,102519.55
2018-06-25T22:59:20.219Z,102513.89
2018-06-25T23:02:22.235Z,102520.12
2018-06-25T23:05:24.367Z,102519.87
2018-06-25T23:08:26.452Z,102518.99
2018-06-25T23:11:28.609Z,102524.19
2018-06-25T23:14:30.650Z,102520.53
2018-06-25T23:17:32.753Z,102530.95
2018-06-25T23:20:35.579Z,102534.29
2018-06-25T23:23:37.600Z,102541.03
2018-06-25T23:26:39.759Z,102541.62
2018-06-25T23:29:41.710Z,102530.59
2018-06-25T23:32:43.848Z,102531.87
2018-06-25T23:35:45.991Z,102537.59
2018-06-25T23:38:48.058Z,102533.45
2018-06-25T23:41:50.109Z,102531.18
2018-06-25T23:44:54.227Z,102532.95
2018-06-25T23:47:56.328Z,102537.21
2018-06-25T23:51:00.435Z,102538.01
2018-06-25T23:54:02.623Z,102540.34
2018-06-25T23:57:04.958Z,102536.23
